Ortonville, Michigan
Current Conditions -  °F | °C
As of 12:53 PM on Sunday 21 Dec 2014 (Local Time) from KPTK Reporting Station
Overcast Overcast  
Wind Chill: 25°   Ceiling: 5500
Heat Index: 32°   Visibility: 9mi
Dew Point: 22°   Wind: 8mph
Humidity: 66%   Direction: 180°S
Pressure: 30.23"   Gusts: NA
Location:  42.85°N, 83.44°W
Report Text: KPTK 211753Z 18007KT 9SM OVC055 00/M06 A3023 RMK AO2 SLP249 T00001056 10000 21033 58014
Loading
Personal Weather Stations






























Interactive Weather Map New forecast layout! Learn more

10-Day Weather Forecast

Advertisements
Track Severe Weather on mobile